sensor_id;sensor_type;location;lat;lon;timestamp;P1;durP1;ratioP1;P2;durP2;ratioP2
53652;SDS011;39553;52.954;5.932;2023-04-08T00:00:38;12.60;;;6.75;;
53652;SDS011;39553;52.954;5.932;2023-04-08T00:03:03;8.55;;;6.35;;
53652;SDS011;39553;52.954;5.932;2023-04-08T00:05:32;11.63;;;6.55;;
53652;SDS011;39553;52.954;5.932;2023-04-08T00:07:58;11.13;;;7.22;;
53652;SDS011;39553;52.954;5.932;2023-04-08T00:10:24;9.93;;;6.40;;
53652;SDS011;39553;52.954;5.932;2023-04-08T00:12:50;11.77;;;7.63;;
53652;SDS011;39553;52.954;5.932;2023-04-08T00:15:16;11.70;;;7.10;;
53652;SDS011;39553;52.954;5.932;2023-04-08T00:17:48;11.18;;;6.80;;
53652;SDS011;39553;52.954;5.932;2023-04-08T00:20:14;11.57;;;6.88;;
53652;SDS011;39553;52.954;5.932;2023-04-08T00:22:39;12.68;;;6.82;;
53652;SDS011;39553;52.954;5.932;2023-04-08T00:25:05;10.98;;;7.70;;
53652;SDS011;39553;52.954;5.932;2023-04-08T00:27:36;10.50;;;6.90;;
53652;SDS011;39553;52.954;5.932;2023-04-08T00:30:03;12.35;;;6.88;;
53652;SDS011;39553;52.954;5.932;2023-04-08T00:32:32;11.95;;;6.82;;
53652;SDS011;39553;52.954;5.932;2023-04-08T00:34:57;12.57;;;7.43;;
53652;SDS011;39553;52.954;5.932;2023-04-08T00:37:24;14.95;;;7.15;;
53652;SDS011;39553;52.954;5.932;2023-04-08T00:39:50;14.80;;;7.55;;
53652;SDS011;39553;52.954;5.932;2023-04-08T00:42:19;12.98;;;6.75;;
53652;SDS011;39553;52.954;5.932;2023-04-08T00:44:46;11.55;;;6.90;;
53652;SDS011;39553;52.954;5.932;2023-04-08T00:47:12;13.05;;;7.45;;
53652;SDS011;39553;52.954;5.932;2023-04-08T00:49:38;11.88;;;7.63;;
53652;SDS011;39553;52.954;5.932;2023-04-08T00:52:07;10.77;;;7.10;;
53652;SDS011;39553;52.954;5.932;2023-04-08T00:54:34;10.18;;;7.05;;
53652;SDS011;39553;52.954;5.932;2023-04-08T00:57:01;10.80;;;6.82;;
53652;SDS011;39553;52.954;5.932;2023-04-08T00:59:31;14.90;;;7.07;;
53652;SDS011;39553;52.954;5.932;2023-04-08T01:02:14;10.50;;;6.18;;
53652;SDS011;39553;52.954;5.932;2023-04-08T01:07:40;12.23;;;7.55;;
53652;SDS011;39553;52.954;5.932;2023-04-08T01:10:20;10.10;;;6.97;;
53652;SDS011;39553;52.954;5.932;2023-04-08T01:12:56;11.15;;;6.97;;
53652;SDS011;39553;52.954;5.932;2023-04-08T01:15:25;15.25;;;7.80;;
53652;SDS011;39553;52.954;5.932;2023-04-08T01:17:54;12.65;;;7.55;;
53652;SDS011;39553;52.954;5.932;2023-04-08T01:20:21;11.32;;;7.38;;
53652;SDS011;39553;52.954;5.932;2023-04-08T01:25:33;11.18;;;7.50;;
53652;SDS011;39553;52.954;5.932;2023-04-08T01:28:02;11.93;;;7.07;;
53652;SDS011;39553;52.954;5.932;2023-04-08T01:30:34;12.65;;;6.90;;
53652;SDS011;39553;52.954;5.932;2023-04-08T01:33:03;12.68;;;7.50;;
53652;SDS011;39553;52.954;5.932;2023-04-08T01:35:30;13.27;;;7.90;;
53652;SDS011;39553;52.954;5.932;2023-04-08T01:37:57;13.32;;;7.95;;
53652;SDS011;39553;52.954;5.932;2023-04-08T01:40:25;11.15;;;7.57;;
53652;SDS011;39553;52.954;5.932;2023-04-08T01:42:52;15.48;;;7.97;;
53652;SDS011;39553;52.954;5.932;2023-04-08T01:45:20;13.32;;;8.48;;
53652;SDS011;39553;52.954;5.932;2023-04-08T01:47:47;20.02;;;9.20;;
53652;SDS011;39553;52.954;5.932;2023-04-08T01:50:15;13.75;;;8.20;;
53652;SDS011;39553;52.954;5.932;2023-04-08T01:52:43;16.13;;;9.07;;
53652;SDS011;39553;52.954;5.932;2023-04-08T01:55:12;14.27;;;8.80;;
53652;SDS011;39553;52.954;5.932;2023-04-08T01:57:38;14.57;;;8.70;;
53652;SDS011;39553;52.954;5.932;2023-04-08T02:00:09;14.25;;;8.40;;
53652;SDS011;39553;52.954;5.932;2023-04-08T02:02:37;14.05;;;7.70;;
53652;SDS011;39553;52.954;5.932;2023-04-08T02:05:05;18.85;;;7.80;;
53652;SDS011;39553;52.954;5.932;2023-04-08T02:07:32;15.52;;;8.48;;
53652;SDS011;39553;52.954;5.932;2023-04-08T02:09:59;14.70;;;8.30;;
53652;SDS011;39553;52.954;5.932;2023-04-08T02:12:25;15.15;;;9.05;;
53652;SDS011;39553;52.954;5.932;2023-04-08T02:14:52;15.15;;;8.68;;
53652;SDS011;39553;52.954;5.932;2023-04-08T02:17:20;16.17;;;8.90;;
53652;SDS011;39553;52.954;5.932;2023-04-08T02:22:43;14.20;;;9.10;;
53652;SDS011;39553;52.954;5.932;2023-04-08T02:25:32;15.43;;;9.35;;
53652;SDS011;39553;52.954;5.932;2023-04-08T02:28:02;15.27;;;9.15;;
53652;SDS011;39553;52.954;5.932;2023-04-08T02:30:31;14.18;;;8.77;;
53652;SDS011;39553;52.954;5.932;2023-04-08T02:32:58;21.73;;;10.45;;
53652;SDS011;39553;52.954;5.932;2023-04-08T02:35:27;14.60;;;9.32;;
53652;SDS011;39553;52.954;5.932;2023-04-08T02:37:53;20.65;;;10.13;;
53652;SDS011;39553;52.954;5.932;2023-04-08T02:40:26;18.23;;;10.38;;
53652;SDS011;39553;52.954;5.932;2023-04-08T02:42:56;15.88;;;9.57;;
53652;SDS011;39553;52.954;5.932;2023-04-08T02:48:19;21.98;;;10.48;;
53652;SDS011;39553;52.954;5.932;2023-04-08T02:50:45;21.20;;;11.35;;
53652;SDS011;39553;52.954;5.932;2023-04-08T02:53:11;20.90;;;11.40;;
53652;SDS011;39553;52.954;5.932;2023-04-08T02:55:37;21.35;;;11.05;;
53652;SDS011;39553;52.954;5.932;2023-04-08T02:58:06;17.35;;;10.27;;
53652;SDS011;39553;52.954;5.932;2023-04-08T03:00:32;21.50;;;12.20;;
53652;SDS011;39553;52.954;5.932;2023-04-08T03:02:58;19.48;;;12.25;;
53652;SDS011;39553;52.954;5.932;2023-04-08T03:05:25;22.60;;;12.25;;
53652;SDS011;39553;52.954;5.932;2023-04-08T03:07:50;20.08;;;12.73;;
53652;SDS011;39553;52.954;5.932;2023-04-08T03:10:17;20.92;;;11.88;;
53652;SDS011;39553;52.954;5.932;2023-04-08T03:12:43;20.45;;;11.63;;
53652;SDS011;39553;52.954;5.932;2023-04-08T03:15:09;18.65;;;13.07;;
53652;SDS011;39553;52.954;5.932;2023-04-08T03:17:35;26.15;;;12.85;;
53652;SDS011;39553;52.954;5.932;2023-04-08T03:20:01;20.85;;;12.73;;
53652;SDS011;39553;52.954;5.932;2023-04-08T03:22:31;26.85;;;14.07;;
53652;SDS011;39553;52.954;5.932;2023-04-08T03:24:58;24.20;;;12.45;;
53652;SDS011;39553;52.954;5.932;2023-04-08T03:27:23;27.33;;;14.00;;
53652;SDS011;39553;52.954;5.932;2023-04-08T03:29:49;21.42;;;13.07;;
53652;SDS011;39553;52.954;5.932;2023-04-08T03:32:20;22.02;;;13.13;;
53652;SDS011;39553;52.954;5.932;2023-04-08T03:34:46;25.05;;;12.90;;
53652;SDS011;39553;52.954;5.932;2023-04-08T03:37:27;22.83;;;13.60;;
53652;SDS011;39553;52.954;5.932;2023-04-08T03:39:53;27.50;;;14.88;;
53652;SDS011;39553;52.954;5.932;2023-04-08T03:42:19;25.13;;;14.52;;
53652;SDS011;39553;52.954;5.932;2023-04-08T03:44:45;22.55;;;13.25;;
53652;SDS011;39553;52.954;5.932;2023-04-08T03:47:11;29.77;;;15.10;;
53652;SDS011;39553;52.954;5.932;2023-04-08T03:49:38;29.25;;;15.43;;
53652;SDS011;39553;52.954;5.932;2023-04-08T03:52:04;27.90;;;14.10;;
53652;SDS011;39553;52.954;5.932;2023-04-08T03:54:30;28.98;;;14.90;;
53652;SDS011;39553;52.954;5.932;2023-04-08T03:56:55;31.10;;;15.70;;
53652;SDS011;39553;52.954;5.932;2023-04-08T03:59:21;28.08;;;15.60;;
53652;SDS011;39553;52.954;5.932;2023-04-08T04:01:47;27.38;;;15.75;;
53652;SDS011;39553;52.954;5.932;2023-04-08T04:04:13;32.63;;;15.70;;
53652;SDS011;39553;52.954;5.932;2023-04-08T04:06:39;26.83;;;15.13;;
53652;SDS011;39553;52.954;5.932;2023-04-08T04:09:04;27.15;;;15.57;;
53652;SDS011;39553;52.954;5.932;2023-04-08T04:11:30;36.30;;;16.25;;
53652;SDS011;39553;52.954;5.932;2023-04-08T04:13:58;29.52;;;15.93;;
53652;SDS011;39553;52.954;5.932;2023-04-08T04:16:30;32.33;;;17.02;;
53652;SDS011;39553;52.954;5.932;2023-04-08T04:18:55;28.38;;;15.30;;
53652;SDS011;39553;52.954;5.932;2023-04-08T04:21:23;27.85;;;15.88;;
53652;SDS011;39553;52.954;5.932;2023-04-08T04:23:53;27.50;;;17.05;;
53652;SDS011;39553;52.954;5.932;2023-04-08T04:26:18;28.23;;;16.67;;
53652;SDS011;39553;52.954;5.932;2023-04-08T04:28:45;29.63;;;16.90;;
53652;SDS011;39553;52.954;5.932;2023-04-08T04:31:20;33.75;;;17.80;;
53652;SDS011;39553;52.954;5.932;2023-04-08T04:33:50;31.42;;;16.73;;
53652;SDS011;39553;52.954;5.932;2023-04-08T04:36:17;33.03;;;18.40;;
53652;SDS011;39553;52.954;5.932;2023-04-08T04:38:43;29.88;;;15.55;;
53652;SDS011;39553;52.954;5.932;2023-04-08T04:41:19;34.70;;;17.77;;
53652;SDS011;39553;52.954;5.932;2023-04-08T04:43:45;30.88;;;17.15;;
53652;SDS011;39553;52.954;5.932;2023-04-08T04:46:15;34.33;;;18.20;;
53652;SDS011;39553;52.954;5.932;2023-04-08T04:48:41;34.92;;;18.40;;
53652;SDS011;39553;52.954;5.932;2023-04-08T04:51:08;33.85;;;18.52;;
53652;SDS011;39553;52.954;5.932;2023-04-08T04:53:34;35.85;;;19.38;;
53652;SDS011;39553;52.954;5.932;2023-04-08T04:56:00;31.85;;;17.23;;
53652;SDS011;39553;52.954;5.932;2023-04-08T04:58:27;37.05;;;18.33;;
53652;SDS011;39553;52.954;5.932;2023-04-08T05:00:54;36.17;;;19.08;;
53652;SDS011;39553;52.954;5.932;2023-04-08T05:03:20;37.60;;;19.38;;
53652;SDS011;39553;52.954;5.932;2023-04-08T05:05:50;42.22;;;18.90;;
53652;SDS011;39553;52.954;5.932;2023-04-08T05:08:17;40.50;;;19.55;;
53652;SDS011;39553;52.954;5.932;2023-04-08T05:10:42;40.35;;;19.77;;
53652;SDS011;39553;52.954;5.932;2023-04-08T05:13:08;40.00;;;19.92;;
53652;SDS011;39553;52.954;5.932;2023-04-08T05:15:34;39.63;;;20.02;;
53652;SDS011;39553;52.954;5.932;2023-04-08T05:18:00;44.17;;;20.48;;
53652;SDS011;39553;52.954;5.932;2023-04-08T05:20:25;40.42;;;20.55;;
53652;SDS011;39553;52.954;5.932;2023-04-08T05:22:51;40.33;;;20.45;;
53652;SDS011;39553;52.954;5.932;2023-04-08T05:25:17;38.78;;;20.67;;
53652;SDS011;39553;52.954;5.932;2023-04-08T05:27:43;34.72;;;19.08;;
53652;SDS011;39553;52.954;5.932;2023-04-08T05:30:10;36.20;;;20.10;;
53652;SDS011;39553;52.954;5.932;2023-04-08T05:32:39;40.17;;;20.02;;
53652;SDS011;39553;52.954;5.932;2023-04-08T05:35:05;42.78;;;20.48;;
53652;SDS011;39553;52.954;5.932;2023-04-08T05:37:31;42.90;;;21.45;;
53652;SDS011;39553;52.954;5.932;2023-04-08T05:39:57;39.85;;;20.55;;
53652;SDS011;39553;52.954;5.932;2023-04-08T05:42:22;46.92;;;21.15;;
53652;SDS011;39553;52.954;5.932;2023-04-08T05:44:48;39.65;;;20.58;;
53652;SDS011;39553;52.954;5.932;2023-04-08T05:47:14;43.05;;;22.05;;
53652;SDS011;39553;52.954;5.932;2023-04-08T05:49:40;39.95;;;21.88;;
53652;SDS011;39553;52.954;5.932;2023-04-08T05:52:06;42.05;;;20.48;;
53652;SDS011;39553;52.954;5.932;2023-04-08T05:54:31;37.80;;;20.83;;
53652;SDS011;39553;52.954;5.932;2023-04-08T05:56:57;47.38;;;21.55;;
53652;SDS011;39553;52.954;5.932;2023-04-08T05:59:23;41.25;;;20.65;;
53652;SDS011;39553;52.954;5.932;2023-04-08T06:01:49;37.83;;;20.52;;
53652;SDS011;39553;52.954;5.932;2023-04-08T06:04:15;38.00;;;20.30;;
53652;SDS011;39553;52.954;5.932;2023-04-08T06:06:41;37.53;;;20.45;;
53652;SDS011;39553;52.954;5.932;2023-04-08T06:09:07;47.40;;;21.90;;
53652;SDS011;39553;52.954;5.932;2023-04-08T06:11:36;37.08;;;20.52;;
53652;SDS011;39553;52.954;5.932;2023-04-08T06:14:02;36.55;;;20.85;;
53652;SDS011;39553;52.954;5.932;2023-04-08T06:16:27;40.42;;;20.40;;
53652;SDS011;39553;52.954;5.932;2023-04-08T06:18:53;37.22;;;20.02;;
53652;SDS011;39553;52.954;5.932;2023-04-08T06:21:19;37.67;;;20.27;;
53652;SDS011;39553;52.954;5.932;2023-04-08T06:23:46;42.85;;;19.92;;
53652;SDS011;39553;52.954;5.932;2023-04-08T06:26:12;40.03;;;19.92;;
53652;SDS011;39553;52.954;5.932;2023-04-08T06:28:38;44.28;;;21.15;;
53652;SDS011;39553;52.954;5.932;2023-04-08T06:31:05;41.00;;;20.63;;
53652;SDS011;39553;52.954;5.932;2023-04-08T06:33:31;40.63;;;21.50;;
53652;SDS011;39553;52.954;5.932;2023-04-08T06:36:03;40.55;;;20.83;;
53652;SDS011;39553;52.954;5.932;2023-04-08T06:38:29;38.30;;;20.13;;
53652;SDS011;39553;52.954;5.932;2023-04-08T06:41:06;33.83;;;19.73;;
53652;SDS011;39553;52.954;5.932;2023-04-08T06:43:32;37.03;;;20.02;;
53652;SDS011;39553;52.954;5.932;2023-04-08T06:45:59;34.75;;;20.05;;
53652;SDS011;39553;52.954;5.932;2023-04-08T06:48:25;34.03;;;19.98;;
53652;SDS011;39553;52.954;5.932;2023-04-08T06:50:57;27.85;;;18.88;;
53652;SDS011;39553;52.954;5.932;2023-04-08T06:53:24;35.50;;;19.33;;
53652;SDS011;39553;52.954;5.932;2023-04-08T06:55:51;29.40;;;18.30;;
53652;SDS011;39553;52.954;5.932;2023-04-08T06:58:17;27.40;;;16.90;;
53652;SDS011;39553;52.954;5.932;2023-04-08T07:00:47;21.42;;;15.05;;
53652;SDS011;39553;52.954;5.932;2023-04-08T07:03:12;23.88;;;15.75;;
53652;SDS011;39553;52.954;5.932;2023-04-08T07:05:38;21.55;;;14.30;;
53652;SDS011;39553;52.954;5.932;2023-04-08T07:08:06;23.80;;;15.20;;
53652;SDS011;39553;52.954;5.932;2023-04-08T07:10:33;23.98;;;15.23;;
53652;SDS011;39553;52.954;5.932;2023-04-08T07:12:59;19.55;;;13.55;;
53652;SDS011;39553;52.954;5.932;2023-04-08T07:15:27;22.20;;;14.75;;
53652;SDS011;39553;52.954;5.932;2023-04-08T07:17:52;22.70;;;14.55;;
53652;SDS011;39553;52.954;5.932;2023-04-08T07:20:21;24.63;;;15.30;;
53652;SDS011;39553;52.954;5.932;2023-04-08T07:22:47;24.70;;;15.32;;
53652;SDS011;39553;52.954;5.932;2023-04-08T07:25:13;22.85;;;15.40;;
53652;SDS011;39553;52.954;5.932;2023-04-08T07:27:40;26.38;;;15.05;;
53652;SDS011;39553;52.954;5.932;2023-04-08T07:30:06;23.00;;;16.08;;
53652;SDS011;39553;52.954;5.932;2023-04-08T07:32:33;24.65;;;15.27;;
53652;SDS011;39553;52.954;5.932;2023-04-08T07:34:59;27.58;;;15.52;;
53652;SDS011;39553;52.954;5.932;2023-04-08T07:37:26;22.98;;;15.82;;
53652;SDS011;39553;52.954;5.932;2023-04-08T07:39:55;26.10;;;16.15;;
53652;SDS011;39553;52.954;5.932;2023-04-08T07:42:21;25.85;;;15.85;;
53652;SDS011;39553;52.954;5.932;2023-04-08T07:44:46;24.10;;;15.82;;
53652;SDS011;39553;52.954;5.932;2023-04-08T07:47:12;25.20;;;16.33;;
53652;SDS011;39553;52.954;5.932;2023-04-08T07:49:38;28.38;;;17.95;;
53652;SDS011;39553;52.954;5.932;2023-04-08T07:52:05;28.10;;;18.40;;
53652;SDS011;39553;52.954;5.932;2023-04-08T07:54:31;29.10;;;18.02;;
53652;SDS011;39553;52.954;5.932;2023-04-08T07:57:00;24.55;;;16.42;;
53652;SDS011;39553;52.954;5.932;2023-04-08T07:59:27;29.27;;;17.73;;
53652;SDS011;39553;52.954;5.932;2023-04-08T08:01:54;30.15;;;17.73;;
53652;SDS011;39553;52.954;5.932;2023-04-08T08:04:20;28.92;;;17.15;;
53652;SDS011;39553;52.954;5.932;2023-04-08T08:06:50;28.10;;;17.52;;
53652;SDS011;39553;52.954;5.932;2023-04-08T08:09:16;29.05;;;18.90;;
53652;SDS011;39553;52.954;5.932;2023-04-08T08:11:41;26.83;;;17.83;;
53652;SDS011;39553;52.954;5.932;2023-04-08T08:14:09;25.63;;;17.60;;
53652;SDS011;39553;52.954;5.932;2023-04-08T08:16:35;29.27;;;18.60;;
53652;SDS011;39553;52.954;5.932;2023-04-08T08:19:02;32.55;;;18.27;;
53652;SDS011;39553;52.954;5.932;2023-04-08T08:21:30;31.02;;;17.40;;
53652;SDS011;39553;52.954;5.932;2023-04-08T08:24:07;29.33;;;18.17;;
53652;SDS011;39553;52.954;5.932;2023-04-08T08:26:35;28.95;;;16.55;;
53652;SDS011;39553;52.954;5.932;2023-04-08T08:29:01;30.20;;;17.85;;
53652;SDS011;39553;52.954;5.932;2023-04-08T08:31:29;28.50;;;18.05;;
53652;SDS011;39553;52.954;5.932;2023-04-08T08:33:55;29.63;;;17.70;;
53652;SDS011;39553;52.954;5.932;2023-04-08T08:36:21;29.65;;;17.73;;
53652;SDS011;39553;52.954;5.932;2023-04-08T08:38:49;31.95;;;19.38;;
53652;SDS011;39553;52.954;5.932;2023-04-08T08:41:17;32.67;;;19.30;;
53652;SDS011;39553;52.954;5.932;2023-04-08T08:43:43;29.27;;;19.58;;
53652;SDS011;39553;52.954;5.932;2023-04-08T08:46:09;29.00;;;17.98;;
53652;SDS011;39553;52.954;5.932;2023-04-08T08:48:38;29.67;;;18.15;;
53652;SDS011;39553;52.954;5.932;2023-04-08T08:51:08;29.02;;;18.88;;
53652;SDS011;39553;52.954;5.932;2023-04-08T08:53:34;30.42;;;18.08;;
53652;SDS011;39553;52.954;5.932;2023-04-08T08:56:00;25.92;;;16.20;;
53652;SDS011;39553;52.954;5.932;2023-04-08T08:58:26;26.42;;;17.40;;
53652;SDS011;39553;52.954;5.932;2023-04-08T09:00:52;25.92;;;16.80;;
53652;SDS011;39553;52.954;5.932;2023-04-08T09:03:23;23.70;;;15.57;;
53652;SDS011;39553;52.954;5.932;2023-04-08T09:05:53;25.35;;;17.08;;
53652;SDS011;39553;52.954;5.932;2023-04-08T09:08:28;23.83;;;15.93;;
53652;SDS011;39553;52.954;5.932;2023-04-08T09:11:14;22.23;;;15.13;;
53652;SDS011;39553;52.954;5.932;2023-04-08T09:13:41;23.05;;;16.00;;
53652;SDS011;39553;52.954;5.932;2023-04-08T09:16:08;25.77;;;15.50;;
53652;SDS011;39553;52.954;5.932;2023-04-08T09:18:35;18.55;;;13.35;;
53652;SDS011;39553;52.954;5.932;2023-04-08T09:21:03;17.65;;;13.27;;
53652;SDS011;39553;52.954;5.932;2023-04-08T09:23:37;18.23;;;12.40;;
53652;SDS011;39553;52.954;5.932;2023-04-08T09:26:08;17.92;;;13.18;;
53652;SDS011;39553;52.954;5.932;2023-04-08T09:28:35;17.40;;;13.15;;
53652;SDS011;39553;52.954;5.932;2023-04-08T09:31:08;22.48;;;14.77;;
53652;SDS011;39553;52.954;5.932;2023-04-08T09:33:53;18.20;;;13.50;;
53652;SDS011;39553;52.954;5.932;2023-04-08T09:36:22;20.13;;;14.10;;
53652;SDS011;39553;52.954;5.932;2023-04-08T09:38:50;19.02;;;13.43;;
53652;SDS011;39553;52.954;5.932;2023-04-08T09:41:17;19.33;;;14.43;;
53652;SDS011;39553;52.954;5.932;2023-04-08T09:43:52;18.33;;;13.88;;
53652;SDS011;39553;52.954;5.932;2023-04-08T09:48:57;19.75;;;14.45;;
53652;SDS011;39553;52.954;5.932;2023-04-08T09:51:35;18.83;;;14.70;;
53652;SDS011;39553;52.954;5.932;2023-04-08T09:54:31;20.88;;;14.32;;
53652;SDS011;39553;52.954;5.932;2023-04-08T09:57:09;17.83;;;12.98;;
53652;SDS011;39553;52.954;5.932;2023-04-08T10:02:09;16.88;;;13.05;;
53652;SDS011;39553;52.954;5.932;2023-04-08T10:04:40;20.55;;;14.05;;
53652;SDS011;39553;52.954;5.932;2023-04-08T10:07:09;16.70;;;13.65;;
53652;SDS011;39553;52.954;5.932;2023-04-08T10:09:35;15.23;;;12.68;;
53652;SDS011;39553;52.954;5.932;2023-04-08T10:12:02;15.43;;;11.70;;
53652;SDS011;39553;52.954;5.932;2023-04-08T10:14:29;15.82;;;12.73;;
53652;SDS011;39553;52.954;5.932;2023-04-08T10:19:59;15.48;;;11.10;;
53652;SDS011;39553;52.954;5.932;2023-04-08T10:22:44;13.27;;;11.05;;
53652;SDS011;39553;52.954;5.932;2023-04-08T10:27:41;12.88;;;10.13;;
53652;SDS011;39553;52.954;5.932;2023-04-08T10:32:55;14.30;;;10.40;;
53652;SDS011;39553;52.954;5.932;2023-04-08T10:35:29;12.52;;;8.93;;
53652;SDS011;39553;52.954;5.932;2023-04-08T10:38:04;11.93;;;8.60;;
53652;SDS011;39553;52.954;5.932;2023-04-08T10:40:35;11.60;;;8.00;;
53652;SDS011;39553;52.954;5.932;2023-04-08T10:43:03;10.38;;;8.50;;
53652;SDS011;39553;52.954;5.932;2023-04-08T10:45:29;10.38;;;8.55;;
53652;SDS011;39553;52.954;5.932;2023-04-08T10:47:55;11.05;;;8.35;;
53652;SDS011;39553;52.954;5.932;2023-04-08T10:50:21;10.35;;;7.93;;
53652;SDS011;39553;52.954;5.932;2023-04-08T10:52:48;9.93;;;8.38;;
53652;SDS011;39553;52.954;5.932;2023-04-08T10:55:15;10.55;;;9.20;;
53652;SDS011;39553;52.954;5.932;2023-04-08T10:57:42;10.93;;;8.32;;
53652;SDS011;39553;52.954;5.932;2023-04-08T11:00:15;13.93;;;8.52;;
53652;SDS011;39553;52.954;5.932;2023-04-08T11:02:43;9.93;;;7.95;;
53652;SDS011;39553;52.954;5.932;2023-04-08T11:05:09;10.95;;;7.95;;
53652;SDS011;39553;52.954;5.932;2023-04-08T11:07:41;11.23;;;8.38;;
53652;SDS011;39553;52.954;5.932;2023-04-08T11:10:07;11.32;;;8.35;;
53652;SDS011;39553;52.954;5.932;2023-04-08T11:12:34;9.57;;;8.10;;
53652;SDS011;39553;52.954;5.932;2023-04-08T11:15:04;10.07;;;7.78;;
53652;SDS011;39553;52.954;5.932;2023-04-08T11:17:32;11.00;;;8.40;;
53652;SDS011;39553;52.954;5.932;2023-04-08T11:19:59;10.00;;;7.97;;
53652;SDS011;39553;52.954;5.932;2023-04-08T11:22:30;9.55;;;7.78;;
53652;SDS011;39553;52.954;5.932;2023-04-08T11:24:57;9.60;;;7.95;;
53652;SDS011;39553;52.954;5.932;2023-04-08T11:27:24;10.73;;;8.40;;
53652;SDS011;39553;52.954;5.932;2023-04-08T11:29:54;9.52;;;7.72;;
53652;SDS011;39553;52.954;5.932;2023-04-08T11:32:21;10.95;;;8.27;;
53652;SDS011;39553;52.954;5.932;2023-04-08T11:34:48;10.32;;;8.20;;
53652;SDS011;39553;52.954;5.932;2023-04-08T11:37:14;10.23;;;7.70;;
53652;SDS011;39553;52.954;5.932;2023-04-08T11:39:43;8.80;;;7.03;;
53652;SDS011;39553;52.954;5.932;2023-04-08T11:42:29;8.88;;;7.95;;
53652;SDS011;39553;52.954;5.932;2023-04-08T11:44:56;12.25;;;8.52;;
53652;SDS011;39553;52.954;5.932;2023-04-08T11:47:28;12.73;;;9.75;;
53652;SDS011;39553;52.954;5.932;2023-04-08T11:50:03;12.63;;;9.40;;
53652;SDS011;39553;52.954;5.932;2023-04-08T11:52:43;14.27;;;10.20;;
53652;SDS011;39553;52.954;5.932;2023-04-08T11:55:26;14.32;;;9.48;;
53652;SDS011;39553;52.954;5.932;2023-04-08T11:57:53;14.32;;;10.65;;
53652;SDS011;39553;52.954;5.932;2023-04-08T12:00:20;13.40;;;10.40;;
53652;SDS011;39553;52.954;5.932;2023-04-08T12:02:46;16.48;;;10.77;;
53652;SDS011;39553;52.954;5.932;2023-04-08T12:05:15;15.30;;;10.75;;
53652;SDS011;39553;52.954;5.932;2023-04-08T12:07:41;15.27;;;10.93;;
53652;SDS011;39553;52.954;5.932;2023-04-08T12:10:11;15.57;;;10.98;;
53652;SDS011;39553;52.954;5.932;2023-04-08T12:12:37;13.38;;;9.43;;
53652;SDS011;39553;52.954;5.932;2023-04-08T12:15:04;13.07;;;9.18;;
53652;SDS011;39553;52.954;5.932;2023-04-08T12:17:32;13.23;;;9.38;;
53652;SDS011;39553;52.954;5.932;2023-04-08T12:19:58;12.63;;;8.85;;
53652;SDS011;39553;52.954;5.932;2023-04-08T12:22:25;14.60;;;9.77;;
53652;SDS011;39553;52.954;5.932;2023-04-08T12:24:51;12.15;;;8.70;;
53652;SDS011;39553;52.954;5.932;2023-04-08T12:27:20;12.43;;;9.30;;
53652;SDS011;39553;52.954;5.932;2023-04-08T12:29:45;12.38;;;8.93;;
53652;SDS011;39553;52.954;5.932;2023-04-08T12:32:13;13.48;;;9.63;;
53652;SDS011;39553;52.954;5.932;2023-04-08T12:34:39;15.98;;;11.75;;
53652;SDS011;39553;52.954;5.932;2023-04-08T12:37:05;21.70;;;13.50;;
53652;SDS011;39553;52.954;5.932;2023-04-08T12:39:30;18.58;;;12.23;;
53652;SDS011;39553;52.954;5.932;2023-04-08T12:41:56;13.15;;;8.98;;
53652;SDS011;39553;52.954;5.932;2023-04-08T12:44:23;18.23;;;10.07;;
53652;SDS011;39553;52.954;5.932;2023-04-08T12:46:49;14.40;;;9.90;;
53652;SDS011;39553;52.954;5.932;2023-04-08T12:49:15;13.77;;;10.15;;
53652;SDS011;39553;52.954;5.932;2023-04-08T12:51:41;13.05;;;9.07;;
53652;SDS011;39553;52.954;5.932;2023-04-08T12:54:07;14.23;;;9.07;;
53652;SDS011;39553;52.954;5.932;2023-04-08T12:56:32;15.50;;;10.05;;
53652;SDS011;39553;52.954;5.932;2023-04-08T12:58:58;13.52;;;9.40;;
53652;SDS011;39553;52.954;5.932;2023-04-08T13:01:25;15.48;;;9.95;;
53652;SDS011;39553;52.954;5.932;2023-04-08T13:03:51;16.92;;;10.60;;
53652;SDS011;39553;52.954;5.932;2023-04-08T13:06:18;16.83;;;10.07;;
53652;SDS011;39553;52.954;5.932;2023-04-08T13:08:43;16.05;;;9.40;;
53652;SDS011;39553;52.954;5.932;2023-04-08T13:11:09;13.77;;;10.00;;
53652;SDS011;39553;52.954;5.932;2023-04-08T13:13:38;15.40;;;9.70;;
53652;SDS011;39553;52.954;5.932;2023-04-08T13:16:04;14.68;;;9.98;;
53652;SDS011;39553;52.954;5.932;2023-04-08T13:18:30;15.68;;;9.88;;
53652;SDS011;39553;52.954;5.932;2023-04-08T13:20:56;16.63;;;10.40;;
53652;SDS011;39553;52.954;5.932;2023-04-08T13:23:22;15.40;;;10.27;;
53652;SDS011;39553;52.954;5.932;2023-04-08T13:25:48;16.88;;;10.90;;
53652;SDS011;39553;52.954;5.932;2023-04-08T13:28:15;13.57;;;9.32;;
53652;SDS011;39553;52.954;5.932;2023-04-08T13:30:41;13.65;;;10.23;;
53652;SDS011;39553;52.954;5.932;2023-04-08T13:33:08;13.57;;;8.48;;
53652;SDS011;39553;52.954;5.932;2023-04-08T13:35:35;15.20;;;9.10;;
53652;SDS011;39553;52.954;5.932;2023-04-08T13:38:01;15.48;;;9.40;;
53652;SDS011;39553;52.954;5.932;2023-04-08T13:40:29;13.63;;;9.45;;
53652;SDS011;39553;52.954;5.932;2023-04-08T13:42:55;13.98;;;9.43;;
53652;SDS011;39553;52.954;5.932;2023-04-08T13:45:21;11.57;;;8.05;;
53652;SDS011;39553;52.954;5.932;2023-04-08T13:47:47;13.50;;;9.20;;
53652;SDS011;39553;52.954;5.932;2023-04-08T13:50:13;16.27;;;9.05;;
53652;SDS011;39553;52.954;5.932;2023-04-08T13:52:38;13.95;;;9.32;;
53652;SDS011;39553;52.954;5.932;2023-04-08T13:55:05;14.38;;;8.93;;
53652;SDS011;39553;52.954;5.932;2023-04-08T13:57:31;14.10;;;8.90;;
53652;SDS011;39553;52.954;5.932;2023-04-08T13:59:57;16.05;;;10.15;;
53652;SDS011;39553;52.954;5.932;2023-04-08T14:02:25;13.88;;;9.98;;
53652;SDS011;39553;52.954;5.932;2023-04-08T14:04:51;17.83;;;10.50;;
53652;SDS011;39553;52.954;5.932;2023-04-08T14:07:17;17.20;;;10.15;;
53652;SDS011;39553;52.954;5.932;2023-04-08T14:09:44;15.05;;;9.98;;
53652;SDS011;39553;52.954;5.932;2023-04-08T14:12:10;18.35;;;11.07;;
53652;SDS011;39553;52.954;5.932;2023-04-08T14:14:36;15.60;;;10.60;;
53652;SDS011;39553;52.954;5.932;2023-04-08T14:17:01;16.70;;;10.88;;
53652;SDS011;39553;52.954;5.932;2023-04-08T14:19:28;17.85;;;11.35;;
53652;SDS011;39553;52.954;5.932;2023-04-08T14:21:53;13.98;;;9.23;;
53652;SDS011;39553;52.954;5.932;2023-04-08T14:24:19;19.20;;;10.13;;
53652;SDS011;39553;52.954;5.932;2023-04-08T14:26:45;15.52;;;9.98;;
53652;SDS011;39553;52.954;5.932;2023-04-08T14:29:11;16.23;;;10.20;;
53652;SDS011;39553;52.954;5.932;2023-04-08T14:31:36;19.15;;;11.68;;
53652;SDS011;39553;52.954;5.932;2023-04-08T14:34:02;20.33;;;9.90;;
53652;SDS011;39553;52.954;5.932;2023-04-08T14:36:28;18.08;;;11.27;;
53652;SDS011;39553;52.954;5.932;2023-04-08T14:38:55;16.25;;;10.65;;
53652;SDS011;39553;52.954;5.932;2023-04-08T14:41:21;17.00;;;11.23;;
53652;SDS011;39553;52.954;5.932;2023-04-08T14:43:50;17.33;;;11.27;;
53652;SDS011;39553;52.954;5.932;2023-04-08T14:46:16;19.10;;;11.07;;
53652;SDS011;39553;52.954;5.932;2023-04-08T14:48:42;17.83;;;10.75;;
53652;SDS011;39553;52.954;5.932;2023-04-08T14:51:07;20.20;;;12.30;;
53652;SDS011;39553;52.954;5.932;2023-04-08T14:53:33;19.95;;;12.52;;